Time;durP1;ratioP1;P1;durP2;ratioP2;P2;SDS_P1;SDS_P2;PMS_P1;PMS_P2;Temp;Humidity;BMP_temperature;BMP_pressure;BME280_temperature;BME280_humidity;BME280_pressure;Samples;Min_cycle;Max_cycle;Signal;HPM_P1;HPM_P2
2022/01/08 00:02:13;;;;;;;21.10;14.33;;;;;;;-1.47;70.48;100584.04;1703327;83;21552;-71
2022/01/08 00:04:40;;;;;;;25.10;14.63;;;;;;;-1.52;70.47;100578.38;1701921;83;20982;-73
2022/01/08 00:07:07;;;;;;;22.43;12.83;;;;;;;-1.58;70.48;100577.17;1696376;83;21034;-73
2022/01/08 00:09:33;;;;;;;23.47;13.70;;;;;;;-1.63;70.58;100579.43;1696332;84;21097;-72
2022/01/08 00:12:01;;;;;;;24.07;14.73;;;;;;;-1.65;70.64;100584.52;1697172;83;21078;-76
2022/01/08 00:14:29;;;;;;;26.43;13.23;;;;;;;-1.67;70.81;100587.79;1715415;83;21168;-76
2022/01/08 00:16:55;;;;;;;21.53;12.10;;;;;;;-1.69;70.93;100580.53;1725151;82;20975;-75
2022/01/08 00:19:21;;;;;;;25.40;14.63;;;;;;;-1.75;71.04;100579.31;1725377;82;20976;-76
2022/01/08 00:21:47;;;;;;;19.70;12.20;;;;;;;-1.77;71.28;100578.63;1725372;83;21487;-74
2022/01/08 00:24:15;;;;;;;21.43;13.10;;;;;;;-1.79;71.36;100564.78;1725271;83;21605;-76
2022/01/08 00:26:42;;;;;;;21.90;12.30;;;;;;;-1.88;71.68;100561.23;1722129;83;21508;-78
2022/01/08 00:29:08;;;;;;;28.53;17.13;;;;;;;-1.95;71.94;100563.27;1662421;83;21088;-79
2022/01/08 00:31:35;;;;;;;21.30;12.97;;;;;;;-1.97;72.17;100551.58;1725229;82;20950;-76
2022/01/08 00:34:01;;;;;;;25.57;13.67;;;;;;;-1.94;72.25;100553.91;1700104;83;21024;-77
2022/01/08 00:36:27;;;;;;;23.70;14.23;;;;;;;-1.91;72.35;100548.81;1699953;83;21045;-72
2022/01/08 00:38:54;;;;;;;24.83;13.73;;;;;;;-1.87;72.46;100548.37;1725342;83;21146;-72
2022/01/08 00:41:21;;;;;;;21.87;11.63;;;;;;;-1.85;72.41;100546.42;1724122;82;20922;-73
2022/01/08 00:43:47;;;;;;;25.70;13.30;;;;;;;-1.84;72.51;100541.50;1697063;83;20992;-75
2022/01/08 00:46:13;;;;;;;23.33;13.33;;;;;;;-1.81;72.59;100552.22;1696611;83;21043;-74
2022/01/08 00:48:39;;;;;;;27.50;12.53;;;;;;;-1.73;72.61;100559.40;1701160;82;21052;-71
2022/01/08 00:51:06;;;;;;;22.10;12.37;;;;;;;-1.69;72.43;100560.27;1696733;83;21196;-73
2022/01/08 00:53:32;;;;;;;25.70;16.20;;;;;;;-1.70;72.38;100569.64;1672554;83;21041;-72
2022/01/08 00:55:59;;;;;;;25.97;13.17;;;;;;;-1.72;72.37;100561.87;1696471;84;20922;-73
2022/01/08 00:58:25;;;;;;;20.83;13.40;;;;;;;-1.76;72.37;100557.39;1696504;84;21084;-74
2022/01/08 01:00:51;;;;;;;24.40;13.20;;;;;;;-1.79;72.47;100562.97;1708675;82;21032;-75
2022/01/08 01:03:18;;;;;;;24.80;13.93;;;;;;;-1.78;72.56;100573.86;1729680;82;21035;-73
2022/01/08 01:05:44;;;;;;;19.90;13.00;;;;;;;-1.81;72.54;100575.46;1707583;83;20993;-73
2022/01/08 01:08:11;;;;;;;19.47;11.83;;;;;;;-1.88;72.59;100567.82;1776221;80;21076;-74
2022/01/08 01:10:37;;;;;;;19.23;12.63;;;;;;;-1.92;72.80;100568.27;1791251;80;21529;-74
2022/01/08 01:13:04;;;;;;;19.43;13.10;;;;;;;-1.96;72.95;100566.39;1713418;81;21034;-74
2022/01/08 01:15:30;;;;;;;21.43;14.10;;;;;;;-1.97;73.08;100568.71;1757868;80;21081;-75
2022/01/08 01:17:57;;;;;;;23.00;12.87;;;;;;;-1.96;73.22;100574.79;1761153;80;21009;-75
2022/01/08 01:20:23;;;;;;;21.20;12.20;;;;;;;-1.93;73.25;100566.61;1760932;80;21095;-75
2022/01/08 01:23:11;;;;;;;19.53;12.33;;;;;;;-1.92;73.27;100571.70;1767125;80;21037;-71
2022/01/08 01:25:36;;;;;;;22.07;14.33;;;;;;;-1.93;73.31;100575.34;1759588;81;20983;-73
2022/01/08 01:28:10;;;;;;;21.33;13.40;;;;;;;-1.95;73.41;100576.45;1742655;81;21005;-73
2022/01/08 01:49:06;;;;;;;19.53;10.43;;;;;;;-1.83;73.54;100544.48;1741774;81;20969;-73
2022/01/08 01:51:32;;;;;;;17.27;11.03;;;;;;;-1.85;73.45;100531.09;1772939;80;20993;-73
2022/01/08 01:53:59;;;;;;;16.00;9.30;;;;;;;-1.87;73.47;100529.11;1776796;80;21141;-74
2022/01/08 01:56:25;;;;;;;20.63;11.67;;;;;;;-1.90;73.49;100535.98;1760704;81;21102;-72
2022/01/08 01:58:51;;;;;;;14.70;9.27;;;;;;;-1.93;73.59;100530.53;1766924;80;21293;-72
2022/01/08 02:01:18;;;;;;;12.23;8.70;;;;;;;-1.96;73.57;100537.88;1780003;80;21033;-74
2022/01/08 02:03:44;;;;;;;21.30;11.33;;;;;;;-1.98;73.66;100539.86;1781354;79;20981;-76
2022/01/08 02:06:11;;;;;;;17.70;12.33;;;;;;;-1.98;73.72;100554.36;1752050;80;21109;-72
2022/01/08 02:08:41;;;;;;;21.07;12.97;;;;;;;-1.95;73.80;100554.05;1750589;82;21573;-73
2022/01/08 02:11:08;;;;;;;24.93;15.20;;;;;;;-1.93;73.83;100558.70;1739313;80;20941;-72
2022/01/08 02:13:35;;;;;;;25.20;14.63;;;;;;;-1.95;73.79;100561.95;1781505;79;21486;-73
2022/01/08 02:16:03;;;;;;;25.70;15.43;;;;;;;-2.04;73.94;100572.06;1781575;79;21032;-74
2022/01/08 02:18:31;;;;;;;21.03;14.30;;;;;;;-2.30;74.75;100559.57;1763664;80;21088;-73
2022/01/08 02:21:01;;;;;;;24.13;15.20;;;;;;;-2.44;74.92;100552.63;1759758;80;21521;-73
2022/01/08 02:23:28;;;;;;;23.67;14.17;;;;;;;-2.48;75.24;100556.05;1750651;80;21111;-73
2022/01/08 02:26:07;;;;;;;20.53;13.20;;;;;;;-2.45;75.46;100561.53;1750293;82;20999;-72
2022/01/08 02:28:35;;;;;;;21.83;13.40;;;;;;;-2.40;75.67;100555.34;1771845;80;21055;-73
2022/01/08 02:31:02;;;;;;;24.23;14.83;;;;;;;-2.36;75.72;100544.38;1780186;80;21122;-75
2022/01/08 02:33:28;;;;;;;24.10;15.30;;;;;;;-2.30;75.76;100550.83;1750252;82;20976;-74
2022/01/08 02:35:55;;;;;;;25.97;16.40;;;;;;;-2.28;75.74;100544.95;1750093;82;20944;-74
2022/01/08 02:38:21;;;;;;;21.40;14.83;;;;;;;-2.30;75.77;100542.45;1734395;80;20925;-74
2022/01/08 02:40:55;;;;;;;20.87;12.73;;;;;;;-2.34;75.85;100546.36;1762646;80;21021;-74
2022/01/08 02:43:19;;;;;;;21.53;14.43;;;;;;;-2.42;75.91;100544.95;1781085;80;21299;-74
2022/01/08 02:45:45;;;;;;;20.57;14.80;;;;;;;-2.45;76.08;100540.47;1781260;80;20960;-75
2022/01/08 02:48:11;;;;;;;21.60;13.97;;;;;;;-2.47;76.28;100546.35;1781385;79;20957;-75
2022/01/08 02:50:38;;;;;;;24.43;13.77;;;;;;;-2.45;76.37;100557.58;1781339;79;21048;-75
2022/01/08 02:53:04;;;;;;;17.87;11.93;;;;;;;-2.49;76.41;100559.66;1755935;79;21019;-75
2022/01/08 02:55:30;;;;;;;23.00;13.90;;;;;;;-2.50;76.58;100550.60;1750534;82;22287;-72
2022/01/08 02:57:57;;;;;;;17.20;10.57;;;;;;;-2.50;76.63;100542.70;1750531;82;21549;-72
2022/01/08 03:00:23;;;;;;;18.97;11.83;;;;;;;-2.50;76.75;100539.59;1739357;79;21510;-72
2022/01/08 03:02:51;;;;;;;22.27;13.33;;;;;;;-2.47;76.76;100546.35;1772127;79;21331;-72
2022/01/08 03:05:17;;;;;;;22.30;15.73;;;;;;;-2.44;76.95;100538.98;1779736;80;21039;-72
2022/01/08 03:07:46;;;;;;;17.73;12.60;;;;;;;-2.35;76.90;100549.95;1774025;80;21143;-71
2022/01/08 03:10:16;;;;;;;17.67;11.47;;;;;;;-2.30;76.72;100557.42;1789284;79;21605;-71
2022/01/08 03:12:42;;;;;;;20.27;12.20;;;;;;;-2.32;76.68;100552.80;1773475;79;21004;-71
2022/01/08 03:15:18;;;;;;;17.60;11.40;;;;;;;-2.32;76.64;100547.05;1780239;79;21052;-72
2022/01/08 03:17:45;;;;;;;19.47;11.63;;;;;;;-2.31;76.73;100542.13;1802608;79;21517;-71
2022/01/08 03:20:13;;;;;;;18.77;11.53;;;;;;;-2.26;76.81;100541.69;1802700;79;21131;-72
2022/01/08 03:22:42;;;;;;;17.40;11.40;;;;;;;-2.23;76.66;100534.31;1772492;79;21043;-71
2022/01/08 03:25:10;;;;;;;20.43;11.90;;;;;;;-2.22;76.71;100543.05;1789291;80;20928;-72
2022/01/08 03:27:37;;;;;;;16.77;10.97;;;;;;;-2.17;76.69;100536.85;1773585;80;21063;-71
2022/01/08 03:30:05;;;;;;;15.07;9.93;;;;;;;-2.15;76.55;100534.05;1789482;80;20972;-72
2022/01/08 03:32:32;;;;;;;15.37;11.13;;;;;;;-2.21;76.49;100535.49;1754876;81;21979;-76
2022/01/08 03:34:59;;;;;;;16.87;11.73;;;;;;;-2.17;76.62;100541.29;1770634;81;20981;-75
2022/01/08 03:37:25;;;;;;;14.53;10.83;;;;;;;-2.16;76.59;100536.37;1770928;81;21067;-75
2022/01/08 03:39:52;;;;;;;14.33;10.83;;;;;;;-2.20;76.53;100535.81;1744922;81;21055;-75
2022/01/08 03:42:18;;;;;;;17.33;12.23;;;;;;;-2.32;76.60;100537.00;1745530;81;21569;-75
2022/01/08 03:44:44;;;;;;;17.00;11.07;;;;;;;-2.41;76.83;100540.51;1771289;79;21556;-75
2022/01/08 03:47:30;;;;;;;16.27;10.80;;;;;;;-2.39;77.17;100540.69;1800333;79;21020;-74
2022/01/08 03:49:51;;;;;;;19.60;10.87;;;;;;;-2.37;77.19;100545.83;1801047;79;21000;-74
2022/01/08 03:52:17;;;;;;;15.03;11.07;;;;;;;-2.50;77.37;100550.60;1786935;79;21063;-74
2022/01/08 03:54:43;;;;;;;19.33;13.47;;;;;;;-2.65;77.57;100544.97;1770702;81;21111;-74
2022/01/08 03:57:10;;;;;;;16.47;11.20;;;;;;;-2.70;77.94;100544.09;1760199;80;25737;-73
2022/01/08 03:59:36;;;;;;;19.03;11.77;;;;;;;-2.67;78.20;100549.54;1731211;82;21075;-71
2022/01/08 04:02:03;;;;;;;15.73;10.63;;;;;;;-2.74;78.33;100545.36;1759321;79;21518;-73
2022/01/08 04:04:29;;;;;;;17.43;11.97;;;;;;;-2.69;78.63;100541.81;1716671;81;21040;-73
2022/01/08 04:06:55;;;;;;;19.17;13.17;;;;;;;-2.69;78.54;100540.97;1741331;80;21013;-73
2022/01/08 04:09:22;;;;;;;18.83;11.97;;;;;;;-2.74;78.65;100542.72;1791585;80;21694;-74
2022/01/08 04:11:50;;;;;;;15.13;12.10;;;;;;;-2.74;78.73;100545.36;1777392;80;21072;-74
2022/01/08 04:14:18;;;;;;;19.17;11.07;;;;;;;-2.74;78.86;100551.94;1755099;81;21577;-75
2022/01/08 04:16:48;;;;;;;15.67;10.33;;;;;;;-2.74;78.89;100546.67;1755213;81;21088;-75
2022/01/08 04:19:14;;;;;;;17.60;10.43;;;;;;;-2.77;78.86;100547.42;1764668;80;21025;-74
2022/01/08 04:21:59;;;;;;;15.17;11.67;;;;;;;-2.73;79.01;100550.94;1759290;81;21048;-75
2022/01/08 04:24:26;;;;;;;14.37;10.93;;;;;;;-2.69;79.00;100544.92;1760720;80;21055;-74
2022/01/08 04:26:56;;;;;;;16.43;11.10;;;;;;;-2.69;78.89;100547.07;1760835;81;20898;-73
2022/01/08 04:29:22;;;;;;;15.57;11.07;;;;;;;-2.71;78.85;100549.49;1757758;80;21040;-73
2022/01/08 04:31:49;;;;;;;19.20;12.73;;;;;;;-2.77;78.80;100541.67;1737622;80;21056;-72
2022/01/08 04:34:16;;;;;;;17.00;12.07;;;;;;;-2.77;78.91;100532.46;1755864;81;21060;-72
2022/01/08 04:36:42;;;;;;;14.53;10.97;;;;;;;-2.78;78.95;100524.73;1760171;81;21022;-73
2022/01/08 04:39:09;;;;;;;14.97;13.40;;;;;;;-2.76;79.04;100513.55;1759846;81;21512;-72
2022/01/08 04:41:35;;;;;;;11.23;8.97;;;;;;;-2.75;79.04;100504.20;1761255;80;21567;-74
2022/01/08 04:44:02;;;;;;;12.50;8.13;;;;;;;-2.73;78.94;100505.36;1760396;81;21072;-73
2022/01/08 04:46:28;;;;;;;17.53;11.43;;;;;;;-2.80;78.85;100518.77;1742732;81;21022;-73
2022/01/08 04:48:55;;;;;;;13.53;10.70;;;;;;;-2.84;78.87;100526.61;1760398;80;21015;-73
2022/01/08 04:51:21;;;;;;;18.70;12.37;;;;;;;-2.87;79.11;100528.19;1769220;80;21021;-73
2022/01/08 04:53:47;;;;;;;22.07;13.90;;;;;;;-2.93;79.16;100533.56;1790584;80;21487;-73
2022/01/08 04:56:14;;;;;;;20.87;13.13;;;;;;;-2.99;79.39;100540.70;1791215;79;21021;-72
2022/01/08 04:58:41;;;;;;;18.90;13.63;;;;;;;-3.02;79.53;100551.50;1773197;80;21911;-72
2022/01/08 05:01:13;;;;;;;20.83;13.07;;;;;;;-3.02;79.73;100547.55;1763850;80;21541;-73
2022/01/08 05:03:39;;;;;;;14.98;11.12;;;;;;;-2.99;79.77;100538.56;1758763;80;21017;-73
2022/01/08 05:06:06;;;;;;;18.03;12.13;;;;;;;-3.05;79.86;100541.27;1758674;81;21024;-74
2022/01/08 05:08:35;;;;;;;18.67;13.13;;;;;;;-3.16;80.00;100536.98;1758626;81;21033;-74
2022/01/08 05:11:02;;;;;;;17.63;13.93;;;;;;;-3.20;80.04;100547.93;1758730;81;21838;-74
2022/01/08 05:13:29;;;;;;;21.37;10.87;;;;;;;-3.14;80.37;100554.79;1760153;80;21024;-74
2022/01/08 05:15:55;;;;;;;16.43;11.67;;;;;;;-3.03;80.30;100547.72;1760474;80;21553;-75
2022/01/08 05:18:24;;;;;;;12.47;10.67;;;;;;;-3.02;80.10;100555.95;1760491;81;21096;-75
2022/01/08 05:21:05;;;;;;;14.90;10.53;;;;;;;-3.03;80.00;100555.13;1760117;81;21569;-74
2022/01/08 05:23:21;;;;;;;14.67;9.30;;;;;;;-3.03;79.81;100555.61;1761319;80;21060;-74
2022/01/08 05:25:47;;;;;;;18.80;12.07;;;;;;;-3.07;79.66;100559.49;1742531;81;21037;-74
2022/01/08 05:28:13;;;;;;;19.47;9.90;;;;;;;-3.14;79.72;100558.73;1760107;81;20933;-74
2022/01/08 05:30:40;;;;;;;16.43;10.07;;;;;;;-3.10;79.74;100555.33;1760101;80;21052;-74
2022/01/08 05:33:06;;;;;;;11.97;9.30;;;;;;;-3.13;79.64;100549.88;1778453;80;20953;-74
2022/01/08 05:35:33;;;;;;;14.33;9.87;;;;;;;-3.11;79.62;100558.92;1789351;79;21541;-73
2022/01/08 05:37:59;;;;;;;15.80;9.70;;;;;;;-3.08;79.63;100562.61;1781304;80;21486;-73
2022/01/08 05:40:25;;;;;;;13.10;9.50;;;;;;;-3.04;79.54;100563.98;1763369;80;21633;-74
2022/01/08 05:42:52;;;;;;;14.80;9.27;;;;;;;-3.01;79.50;100567.63;1760687;81;21529;-74
2022/01/08 05:45:18;;;;;;;10.80;8.30;;;;;;;-2.95;79.39;100574.14;1742902;81;21558;-75
2022/01/08 05:47:44;;;;;;;14.47;9.83;;;;;;;-2.95;79.16;100576.77;1760777;81;21652;-74
2022/01/08 05:50:11;;;;;;;14.83;11.27;;;;;;;-2.96;79.19;100571.16;1781409;80;21469;-74
2022/01/08 05:52:37;;;;;;;13.83;8.17;;;;;;;-2.91;79.18;100575.52;1741559;81;21028;-74
2022/01/08 05:55:04;;;;;;;14.13;9.53;;;;;;;-2.84;79.07;100576.13;1758816;81;20965;-74
2022/01/08 05:57:31;;;;;;;15.10;7.80;;;;;;;-2.81;78.85;100580.27;1759141;80;21064;-75
2022/01/08 05:59:57;;;;;;;14.63;9.50;;;;;;;-2.86;78.65;100579.86;1729083;81;21096;-75
2022/01/08 06:02:23;;;;;;;19.30;13.10;;;;;;;-2.97;78.61;100582.67;1748331;81;20955;-75
2022/01/08 06:04:49;;;;;;;17.20;11.63;;;;;;;-3.06;78.77;100584.33;1750133;82;21066;-73
2022/01/08 06:07:16;;;;;;;12.23;9.33;;;;;;;-3.07;79.02;100580.86;1749793;82;21567;-75
2022/01/08 06:09:42;;;;;;;13.10;10.53;;;;;;;-3.04;79.00;100585.52;1750049;82;21063;-74
2022/01/08 06:12:10;;;;;;;20.03;11.83;;;;;;;-3.04;79.03;100583.72;1750380;82;20990;-74
2022/01/08 06:14:36;;;;;;;20.73;12.47;;;;;;;-3.03;79.09;100582.75;1750118;82;21019;-74
2022/01/08 06:17:03;;;;;;;16.63;12.07;;;;;;;-3.06;79.06;100581.70;1749070;82;20948;-75
2022/01/08 06:19:32;;;;;;;16.73;12.37;;;;;;;-3.10;79.14;100589.53;1698716;82;20991;-75
2022/01/08 06:21:59;;;;;;;17.63;12.27;;;;;;;-3.14;79.36;100585.04;1749875;82;21082;-74
2022/01/08 06:24:25;;;;;;;16.93;12.33;;;;;;;-3.32;79.76;100590.66;1749976;82;21583;-75
2022/01/08 06:26:52;;;;;;;18.87;10.53;;;;;;;-3.43;80.19;100590.80;1750049;82;21052;-73
2022/01/08 06:29:18;;;;;;;16.30;11.13;;;;;;;-3.56;80.91;100592.39;1749540;82;21050;-73
2022/01/08 06:31:44;;;;;;;15.73;11.73;;;;;;;-3.64;81.56;100594.02;1722408;82;21027;-74
2022/01/08 06:34:10;;;;;;;20.13;11.37;;;;;;;-3.69;81.84;100602.31;1750248;82;21047;-73
2022/01/08 06:36:37;;;;;;;16.40;11.53;;;;;;;-3.67;82.19;100600.39;1722402;82;21039;-73
2022/01/08 06:39:03;;;;;;;14.10;10.57;;;;;;;-3.64;82.46;100598.80;1720959;82;20955;-72
2022/01/08 06:41:30;;;;;;;17.23;10.17;;;;;;;-3.66;82.68;100595.97;1749862;82;21012;-74
2022/01/08 06:43:57;;;;;;;17.70;10.53;;;;;;;-3.64;82.83;100598.80;1720121;83;21102;-74
2022/01/08 06:46:24;;;;;;;18.63;12.00;;;;;;;-3.63;83.01;100599.14;1693562;83;20975;-73
2022/01/08 06:48:51;;;;;;;15.60;10.93;;;;;;;-3.59;83.09;100595.75;1720784;82;21126;-73
2022/01/08 06:51:18;;;;;;;17.30;11.47;;;;;;;-3.58;83.23;100598.25;1720275;82;21568;-74
2022/01/08 06:53:44;;;;;;;15.03;11.00;;;;;;;-3.60;83.39;100597.55;1720286;83;21533;-76
2022/01/08 06:56:10;;;;;;;14.40;10.53;;;;;;;-3.54;83.45;100603.58;1720265;83;21548;-75
2022/01/08 06:58:37;;;;;;;15.57;11.53;;;;;;;-3.49;83.41;100598.39;1721126;82;21672;-73
2022/01/08 07:01:03;;;;;;;17.20;11.43;;;;;;;-3.44;83.33;100604.91;1723016;80;21536;-76
2022/01/08 07:03:30;;;;;;;16.63;11.00;;;;;;;-3.44;83.22;100603.59;1761114;80;21515;-78
2022/01/08 07:05:57;;;;;;;19.43;11.47;;;;;;;-3.48;83.17;100608.78;1760658;81;21050;-78
2022/01/08 07:08:24;;;;;;;13.60;9.83;;;;;;;-3.52;83.25;100615.28;1760651;81;21535;-78
2022/01/08 07:10:50;;;;;;;15.37;11.30;;;;;;;-3.50;83.37;100615.96;1761109;80;20997;-79
2022/01/08 07:13:16;;;;;;;16.67;11.20;;;;;;;-3.49;83.29;100608.91;1760668;81;22129;-80
2022/01/08 07:15:43;;;;;;;16.97;12.40;;;;;;;-3.53;83.31;100614.45;1764765;80;21714;-77
2022/01/08 07:18:09;;;;;;;15.10;11.77;;;;;;;-3.53;83.35;100613.61;1781320;80;21517;-74
2022/01/08 07:20:35;;;;;;;17.27;11.70;;;;;;;-3.53;83.36;100621.02;1787088;80;21513;-74
2022/01/08 07:23:01;;;;;;;16.97;13.03;;;;;;;-3.53;83.39;100617.56;1763730;80;21565;-72
2022/01/08 07:25:28;;;;;;;14.83;11.30;;;;;;;-3.52;83.59;100619.23;1780034;80;21030;-74
2022/01/08 07:27:54;;;;;;;16.97;11.50;;;;;;;-3.48;83.65;100611.41;1781196;80;20924;-74
2022/01/08 07:30:20;;;;;;;16.23;11.00;;;;;;;-3.44;83.62;100614.11;1788027;80;20978;-74
2022/01/08 07:32:49;;;;;;;12.93;11.17;;;;;;;-3.41;83.60;100603.33;1773472;80;21005;-74
2022/01/08 07:35:19;;;;;;;12.60;10.27;;;;;;;-3.35;83.58;100604.55;1762122;80;21624;-74
2022/01/08 07:37:45;;;;;;;16.50;10.80;;;;;;;-3.29;83.54;100604.84;1725849;82;21046;-76
2022/01/08 07:40:12;;;;;;;11.20;8.30;;;;;;;-3.21;83.30;100604.13;1777112;80;20941;-74
2022/01/08 07:42:39;;;;;;;19.07;10.80;;;;;;;-3.17;83.16;100607.69;1791766;80;21041;-76
2022/01/08 07:45:11;;;;;;;12.73;11.43;;;;;;;-3.12;82.86;100604.13;1791115;80;21029;-78
2022/01/08 07:47:37;;;;;;;13.97;10.50;;;;;;;-3.03;82.76;100599.02;1792119;80;21302;-76
2022/01/08 07:50:05;;;;;;;17.67;11.67;;;;;;;-2.96;82.52;100601.42;1780573;80;21150;-76
2022/01/08 07:52:32;;;;;;;15.20;11.17;;;;;;;-2.91;82.08;100600.03;1743230;81;20937;-77
2022/01/08 07:54:58;;;;;;;13.97;10.00;;;;;;;-2.86;81.96;100596.97;1743486;81;20992;-78
2022/01/08 07:57:24;;;;;;;21.20;10.37;;;;;;;-2.78;81.85;100593.17;1760626;81;21039;-77
2022/01/08 07:59:52;;;;;;;16.17;12.10;;;;;;;-2.70;81.58;100595.91;1761329;80;21072;-78
2022/01/08 08:02:20;;;;;;;15.60;10.93;;;;;;;-2.65;81.03;100598.95;1761424;81;21027;-77
2022/01/08 08:04:46;;;;;;;14.93;9.33;;;;;;;-2.60;80.85;100592.77;1763575;80;21024;-77
2022/01/08 08:07:13;;;;;;;16.63;7.17;;;;;;;-2.53;80.53;100590.38;1738517;80;21060;-78
2022/01/08 08:09:39;;;;;;;14.57;11.20;;;;;;;-2.45;80.15;100597.09;1785321;80;20945;-79
2022/01/08 08:12:07;;;;;;;17.20;9.80;;;;;;;-2.41;79.72;100603.72;1794957;80;21039;-80
2022/01/08 08:14:33;;;;;;;18.13;9.40;;;;;;;-2.37;79.57;100592.75;1762262;81;21566;-79
2022/01/08 08:16:59;;;;;;;15.67;8.07;;;;;;;-2.33;79.71;100596.75;1761347;81;20953;-74
2022/01/08 08:19:25;;;;;;;12.83;9.90;;;;;;;-2.28;79.60;100593.68;1764164;80;21083;-74
2022/01/08 08:21:53;;;;;;;20.57;9.23;;;;;;;-2.24;79.69;100585.34;1763775;81;21011;-75
2022/01/08 08:24:20;;;;;;;14.33;9.80;;;;;;;-2.10;79.76;100586.66;1763644;81;20997;-74
2022/01/08 08:26:47;;;;;;;12.27;8.27;;;;;;;-1.95;79.54;100585.67;1763679;80;21555;-76
2022/01/08 08:29:14;;;;;;;15.13;10.13;;;;;;;-1.86;79.06;100591.38;1738930;80;20968;-76
2022/01/08 08:31:40;;;;;;;12.80;9.73;;;;;;;-1.77;78.72;100596.59;1781793;80;21020;-74
2022/01/08 08:34:07;;;;;;;14.00;7.67;;;;;;;-1.74;77.80;100588.89;1780416;80;21379;-77
2022/01/08 08:36:33;;;;;;;11.00;8.00;;;;;;;-1.69;77.77;100591.91;1763716;81;21005;-75
2022/01/08 08:39:00;;;;;;;12.20;9.23;;;;;;;-1.63;77.13;100587.86;1789148;80;21103;-71
2022/01/08 08:41:26;;;;;;;8.80;7.33;;;;;;;-1.57;77.10;100588.06;1794881;79;20976;-72
2022/01/08 08:43:52;;;;;;;8.23;7.07;;;;;;;-1.49;76.91;100586.85;1795108;79;21072;-74
2022/01/08 08:46:18;;;;;;;10.47;7.37;;;;;;;-1.39;76.80;100575.70;1795116;80;20965;-76
2022/01/08 08:48:45;;;;;;;8.70;6.30;;;;;;;-1.30;76.26;100578.44;1781386;80;21013;-74
2022/01/08 08:51:11;;;;;;;8.80;6.80;;;;;;;-1.26;76.04;100579.79;1789384;80;21523;-73
2022/01/08 08:53:37;;;;;;;11.40;6.50;;;;;;;-1.23;75.60;100578.16;1781782;80;21609;-73
2022/01/08 08:56:04;;;;;;;11.93;6.93;;;;;;;-1.22;75.31;100574.05;1763964;80;21329;-73
2022/01/08 08:58:31;;;;;;;18.53;11.30;;;;;;;-1.21;74.92;100574.40;1781636;80;21373;-74
2022/01/08 09:00:57;;;;;;;9.43;7.17;;;;;;;-1.19;74.79;100572.91;1795087;80;21490;-74
2022/01/08 09:03:23;;;;;;;10.63;8.17;;;;;;;-1.16;74.92;100575.25;1777254;80;21009;-74
2022/01/08 09:05:49;;;;;;;7.60;6.53;;;;;;;-1.07;74.96;100564.61;1760425;81;21190;-73
2022/01/08 09:08:16;;;;;;;14.77;8.50;;;;;;;-0.95;74.20;100562.53;1760708;81;21033;-78
2022/01/08 09:10:44;;;;;;;11.87;7.43;;;;;;;-0.92;73.64;100562.24;1780839;80;20901;-77
2022/01/08 09:13:10;;;;;;;10.30;8.17;;;;;;;-0.86;73.31;100563.45;1772237;80;21056;-77
2022/01/08 09:15:41;;;;;;;9.97;6.60;;;;;;;-0.80;72.87;100560.16;1789418;80;21111;-76
2022/01/08 09:18:07;;;;;;;12.27;7.10;;;;;;;-0.76;72.06;100561.02;1791804;79;21009;-79
2022/01/08 09:20:34;;;;;;;12.00;7.03;;;;;;;-0.72;71.75;100557.59;1767330;80;21069;-78
2022/01/08 09:23:02;;;;;;;7.70;5.30;;;;;;;-0.67;71.70;100553.98;1722267;82;21045;-78
2022/01/08 09:25:28;;;;;;;11.93;6.97;;;;;;;-0.57;70.92;100554.68;1786676;80;21537;-78
2022/01/08 09:27:54;;;;;;;15.60;7.37;;;;;;;-0.51;70.86;100550.09;1792257;80;21130;-78
2022/01/08 09:30:21;;;;;;;15.37;8.50;;;;;;;-0.46;70.96;100542.53;1791986;79;21503;-81
2022/01/08 09:32:47;;;;;;;11.10;6.97;;;;;;;-0.42;70.30;100543.03;1791976;79;21484;-80
2022/01/08 09:35:14;;;;;;;10.87;7.33;;;;;;;-0.31;69.91;100538.80;1761909;80;21084;-80
2022/01/08 09:37:42;;;;;;;9.60;6.03;;;;;;;-0.25;69.14;100544.28;1792148;80;21037;-79
2022/01/08 09:40:12;;;;;;;9.70;5.70;;;;;;;-0.20;67.46;100533.23;1792232;80;21794;-81
2022/01/08 09:42:41;;;;;;;6.27;4.57;;;;;;;-0.19;67.29;100529.61;1791787;80;21016;-78
2022/01/08 09:45:07;;;;;;;6.93;6.17;;;;;;;-0.17;66.25;100528.94;1790809;80;21397;-78
2022/01/08 09:47:35;;;;;;;10.37;4.83;;;;;;;-0.16;66.50;100516.06;1792010;80;21064;-76
2022/01/08 09:50:03;;;;;;;10.97;6.20;;;;;;;-0.14;66.71;100514.06;1773973;80;21115;-83
2022/01/08 09:52:32;;;;;;;9.60;5.93;;;;;;;-0.10;66.82;100508.33;1791792;80;21558;-78
2022/01/08 09:54:59;;;;;;;7.93;4.80;;;;;;;-0.04;66.24;100501.54;1792075;80;21013;-77
2022/01/08 09:57:25;;;;;;;11.83;5.70;;;;;;;-0.02;65.45;100510.98;1790767;80;21518;-77
2022/01/08 09:59:55;;;;;;;9.77;5.93;;;;;;;-0.03;65.76;100498.74;1791801;80;21554;-83
2022/01/08 10:02:22;;;;;;;8.70;5.53;;;;;;;0.01;65.58;100495.27;1792083;79;21525;-80
2022/01/08 10:04:49;;;;;;;15.03;5.93;;;;;;;0.05;65.48;100487.34;1792022;80;21170;-80
2022/01/08 10:07:25;;;;;;;6.87;5.77;;;;;;;0.07;64.88;100478.77;1764234;80;20985;-82
2022/01/08 10:10:12;;;;;;;7.90;5.40;;;;;;;0.09;64.61;100490.52;1769509;79;21022;-79
2022/01/08 10:12:54;;;;;;;11.73;7.13;;;;;;;0.13;64.73;100482.58;1715553;81;21030;-78
2022/01/08 10:18:30;;;;;;;18.70;6.87;;;;;;;0.21;63.90;100485.23;1730004;81;20987;-82
2022/01/08 10:20:57;;;;;;;12.27;5.77;;;;;;;0.20;64.20;100471.66;1744679;80;20965;-82
2022/01/08 10:23:27;;;;;;;17.47;7.13;;;;;;;0.24;64.14;100475.14;1772486;80;21496;-78
2022/01/08 10:26:06;;;;;;;11.07;6.83;;;;;;;0.26;63.63;100466.55;1765150;80;21071;-81
2022/01/08 10:28:54;;;;;;;8.00;4.73;;;;;;;0.28;63.20;100473.02;1792174;80;21589;-79
2022/01/08 10:31:28;;;;;;;12.90;4.97;;;;;;;0.26;62.61;100463.08;1773882;80;21153;-79
2022/01/08 10:33:59;;;;;;;9.53;5.27;;;;;;;0.25;62.61;100458.28;1791737;80;20929;-80
2022/01/08 10:36:31;;;;;;;16.13;8.00;;;;;;;0.23;62.54;100476.16;1744165;80;20981;-80
2022/01/08 10:39:02;;;;;;;11.33;4.90;;;;;;;0.24;61.73;100459.80;1792113;80;20973;-80
2022/01/08 10:41:29;;;;;;;13.97;6.13;;;;;;;0.23;61.62;100461.61;1791865;80;21001;-80
2022/01/08 10:44:18;;;;;;;5.87;4.60;;;;;;;0.24;62.02;100454.50;1774907;80;21147;-81
2022/01/08 10:47:01;;;;;;;13.23;5.03;;;;;;;0.28;61.56;100449.20;1759705;80;21037;-81
2022/01/08 10:49:42;;;;;;;6.53;4.70;;;;;;;0.34;61.27;100450.67;1745343;81;21014;-80
2022/01/08 10:52:20;;;;;;;5.73;4.30;;;;;;;0.40;60.77;100455.81;1761773;80;21529;-81
2022/01/08 10:54:48;;;;;;;9.67;6.93;;;;;;;0.42;60.51;100455.16;1765455;80;21020;-79
2022/01/08 10:57:15;;;;;;;7.00;4.70;;;;;;;0.44;60.61;100452.66;1719325;82;21142;-82
2022/01/08 10:59:42;;;;;;;9.23;4.60;;;;;;;0.47;60.36;100458.63;1723203;82;20990;-81
2022/01/08 11:02:21;;;;;;;2.93;2.73;;;;;;;0.50;60.45;100455.15;1709836;82;21546;-87
2022/01/08 11:04:55;;;;;;;7.73;4.33;;;;;;;0.54;59.74;100459.11;1761163;81;21000;-92
2022/01/08 11:07:28;;;;;;;10.83;6.27;;;;;;;0.49;59.84;100450.84;1783377;80;21456;-88
2022/01/08 11:10:03;;;;;;;13.58;6.35;;;;;;;0.53;59.77;100452.69;1792833;79;21118;-78
2022/01/08 11:12:34;;;;;;;13.90;4.80;;;;;;;0.51;59.76;100448.04;1788850;79;20984;-79
2022/01/08 11:15:24;;;;;;;9.97;5.27;;;;;;;0.51;59.77;100441.42;1791902;79;20989;-83
2022/01/08 11:17:46;;;;;;;13.03;4.60;;;;;;;0.57;59.66;100438.95;1758627;81;21014;-81
2022/01/08 11:20:19;;;;;;;8.13;4.07;;;;;;;0.56;58.54;100439.94;1761961;81;21006;-90
2022/01/08 11:22:48;;;;;;;7.23;4.70;;;;;;;0.57;58.57;100434.15;1765843;80;21709;-87
2022/01/08 11:25:24;;;;;;;9.33;4.00;;;;;;;0.57;58.74;100426.21;1762776;80;20960;-79
2022/01/08 11:28:13;;;;;;;4.13;3.57;;;;;;;0.60;58.34;100422.72;1769712;80;21005;-79
2022/01/08 11:30:50;;;;;;;5.80;3.80;;;;;;;0.58;58.50;100427.84;1768537;80;21598;-79
2022/01/08 11:35:49;;;;;;;10.77;5.07;;;;;;;0.37;58.99;100410.68;1791928;80;20957;-79
2022/01/08 11:38:20;;;;;;;2.67;2.47;;;;;;;0.45;59.38;100400.57;1791953;80;21048;-80
2022/01/08 11:40:49;;;;;;;4.67;3.47;;;;;;;0.55;59.29;100393.78;1776238;80;21581;-82
2022/01/08 11:43:21;;;;;;;5.57;5.03;;;;;;;0.56;58.18;100397.59;1761985;80;21073;-82